Air Navigation Services of Czech Republic
Airport: LKNA Updated:  22.01.2020 00:00:28  UTC
 METAR LKNA 22.01. 00:00 ...
METAR LKNA 220000Z 28003KT 210V340 0200 R31/0750 FZFG VV002 M04/M05 Q1035 RMK RED=
 TAF LKNA 21.01. 23:00 ...
TAF LKNA 212300Z 2200/2300 24004KT 3000 BR OVC005      TEMPO 2200/2208 0700 FZFG OVC002      BECMG 2208/2210 30008KT 5000 BR OVC010      BECMG 2210/2212 9999 BKN025      TEMPO 2211/2218 32010G20KT BKN020=
 WARNING LKNA 21.01. 21:58 ...
LKNA AD WRNG 1 VALID 212200/220400 VIS BLW 800M AND BASE BLW 200FT OBS AND FCST NC=